sensor_id;sensor_type;location;lat;lon;timestamp;P1;durP1;ratioP1;P2;durP2;ratioP2
20653;SDS011;21083;50.898;4.902;2022-07-21T00:02:19;19.55;;;8.90;;
20653;SDS011;21083;50.898;4.902;2022-07-21T00:04:46;21.83;;;9.25;;
20653;SDS011;21083;50.898;4.902;2022-07-21T00:07:13;15.48;;;9.25;;
20653;SDS011;21083;50.898;4.902;2022-07-21T00:09:40;16.88;;;9.77;;
20653;SDS011;21083;50.898;4.902;2022-07-21T00:12:07;16.25;;;9.80;;
20653;SDS011;21083;50.898;4.902;2022-07-21T00:14:34;18.90;;;10.02;;
20653;SDS011;21083;50.898;4.902;2022-07-21T00:17:02;18.52;;;10.15;;
20653;SDS011;21083;50.898;4.902;2022-07-21T00:19:29;17.88;;;9.98;;
20653;SDS011;21083;50.898;4.902;2022-07-21T00:21:56;19.13;;;10.43;;
20653;SDS011;21083;50.898;4.902;2022-07-21T00:24:23;18.15;;;10.73;;
20653;SDS011;21083;50.898;4.902;2022-07-21T00:26:50;18.63;;;9.80;;
20653;SDS011;21083;50.898;4.902;2022-07-21T00:29:17;20.52;;;10.75;;
20653;SDS011;21083;50.898;4.902;2022-07-21T00:31:43;18.65;;;10.38;;
20653;SDS011;21083;50.898;4.902;2022-07-21T00:34:12;19.02;;;9.85;;
20653;SDS011;21083;50.898;4.902;2022-07-21T00:36:39;16.35;;;9.68;;
20653;SDS011;21083;50.898;4.902;2022-07-21T00:39:06;14.90;;;9.32;;
20653;SDS011;21083;50.898;4.902;2022-07-21T00:41:33;16.75;;;10.27;;
20653;SDS011;21083;50.898;4.902;2022-07-21T00:44:00;18.88;;;10.20;;
20653;SDS011;21083;50.898;4.902;2022-07-21T00:46:27;18.85;;;10.45;;
20653;SDS011;21083;50.898;4.902;2022-07-21T00:48:53;20.85;;;10.32;;
20653;SDS011;21083;50.898;4.902;2022-07-21T00:51:22;18.88;;;10.57;;
20653;SDS011;21083;50.898;4.902;2022-07-21T00:53:49;20.77;;;10.07;;
20653;SDS011;21083;50.898;4.902;2022-07-21T00:56:16;20.08;;;10.93;;
20653;SDS011;21083;50.898;4.902;2022-07-21T00:58:43;23.63;;;11.10;;
20653;SDS011;21083;50.898;4.902;2022-07-21T01:01:10;21.75;;;11.27;;
20653;SDS011;21083;50.898;4.902;2022-07-21T01:03:37;19.08;;;10.80;;
20653;SDS011;21083;50.898;4.902;2022-07-21T01:06:04;17.60;;;11.30;;
20653;SDS011;21083;50.898;4.902;2022-07-21T01:08:32;19.08;;;10.00;;
20653;SDS011;21083;50.898;4.902;2022-07-21T01:10:59;17.02;;;10.38;;
20653;SDS011;21083;50.898;4.902;2022-07-21T01:13:26;21.13;;;10.57;;
20653;SDS011;21083;50.898;4.902;2022-07-21T01:15:54;24.30;;;11.80;;
20653;SDS011;21083;50.898;4.902;2022-07-21T01:18:23;19.20;;;10.90;;
20653;SDS011;21083;50.898;4.902;2022-07-21T01:20:50;22.92;;;11.25;;
20653;SDS011;21083;50.898;4.902;2022-07-21T01:23:21;23.38;;;11.48;;
20653;SDS011;21083;50.898;4.902;2022-07-21T01:25:48;20.38;;;11.45;;
20653;SDS011;21083;50.898;4.902;2022-07-21T01:28:15;21.27;;;12.70;;
20653;SDS011;21083;50.898;4.902;2022-07-21T01:30:42;22.27;;;12.85;;
20653;SDS011;21083;50.898;4.902;2022-07-21T01:33:09;20.65;;;11.95;;
20653;SDS011;21083;50.898;4.902;2022-07-21T01:35:36;22.25;;;11.98;;
20653;SDS011;21083;50.898;4.902;2022-07-21T01:38:03;23.98;;;12.38;;
20653;SDS011;21083;50.898;4.902;2022-07-21T01:40:55;23.98;;;13.23;;
20653;SDS011;21083;50.898;4.902;2022-07-21T01:43:37;22.00;;;12.38;;
20653;SDS011;21083;50.898;4.902;2022-07-21T01:46:04;25.70;;;12.25;;
20653;SDS011;21083;50.898;4.902;2022-07-21T01:48:31;24.15;;;12.63;;
20653;SDS011;21083;50.898;4.902;2022-07-21T01:50:58;23.77;;;13.35;;
20653;SDS011;21083;50.898;4.902;2022-07-21T01:53:25;24.80;;;13.75;;
20653;SDS011;21083;50.898;4.902;2022-07-21T01:55:52;21.10;;;13.30;;
20653;SDS011;21083;50.898;4.902;2022-07-21T01:58:20;25.95;;;13.68;;
20653;SDS011;21083;50.898;4.902;2022-07-21T02:00:47;27.55;;;14.75;;
20653;SDS011;21083;50.898;4.902;2022-07-21T02:03:14;25.73;;;13.90;;
20653;SDS011;21083;50.898;4.902;2022-07-21T02:05:40;23.98;;;14.45;;
20653;SDS011;21083;50.898;4.902;2022-07-21T02:08:07;33.20;;;15.02;;
20653;SDS011;21083;50.898;4.902;2022-07-21T02:10:34;29.35;;;15.23;;
20653;SDS011;21083;50.898;4.902;2022-07-21T02:13:01;27.25;;;14.43;;
20653;SDS011;21083;50.898;4.902;2022-07-21T02:15:30;24.20;;;14.15;;
20653;SDS011;21083;50.898;4.902;2022-07-21T02:17:58;23.02;;;14.70;;
20653;SDS011;21083;50.898;4.902;2022-07-21T02:20:25;25.17;;;14.88;;
20653;SDS011;21083;50.898;4.902;2022-07-21T02:22:52;32.05;;;15.73;;
20653;SDS011;21083;50.898;4.902;2022-07-21T02:25:19;24.98;;;15.02;;
20653;SDS011;21083;50.898;4.902;2022-07-21T02:27:46;27.10;;;15.13;;
20653;SDS011;21083;50.898;4.902;2022-07-21T02:30:13;27.80;;;15.43;;
20653;SDS011;21083;50.898;4.902;2022-07-21T02:32:42;26.15;;;14.13;;
20653;SDS011;21083;50.898;4.902;2022-07-21T02:35:09;29.35;;;15.30;;
20653;SDS011;21083;50.898;4.902;2022-07-21T02:37:36;24.63;;;14.52;;
20653;SDS011;21083;50.898;4.902;2022-07-21T02:40:04;33.40;;;15.40;;
20653;SDS011;21083;50.898;4.902;2022-07-21T02:42:32;22.40;;;14.48;;
20653;SDS011;21083;50.898;4.902;2022-07-21T02:44:59;24.98;;;15.60;;
20653;SDS011;21083;50.898;4.902;2022-07-21T02:47:26;24.52;;;15.05;;
20653;SDS011;21083;50.898;4.902;2022-07-21T02:49:54;24.15;;;15.98;;
20653;SDS011;21083;50.898;4.902;2022-07-21T02:52:21;27.02;;;15.15;;
20653;SDS011;21083;50.898;4.902;2022-07-21T02:54:48;30.75;;;15.35;;
20653;SDS011;21083;50.898;4.902;2022-07-21T02:57:15;27.02;;;15.80;;
20653;SDS011;21083;50.898;4.902;2022-07-21T02:59:42;25.70;;;15.68;;
20653;SDS011;21083;50.898;4.902;2022-07-21T03:02:08;27.50;;;16.20;;
20653;SDS011;21083;50.898;4.902;2022-07-21T03:04:35;27.77;;;15.90;;
20653;SDS011;21083;50.898;4.902;2022-07-21T03:07:04;33.70;;;15.75;;
20653;SDS011;21083;50.898;4.902;2022-07-21T03:09:30;27.65;;;16.13;;
20653;SDS011;21083;50.898;4.902;2022-07-21T03:11:57;28.10;;;15.93;;
20653;SDS011;21083;50.898;4.902;2022-07-21T03:14:24;29.70;;;16.42;;
20653;SDS011;21083;50.898;4.902;2022-07-21T03:16:51;34.10;;;16.27;;
20653;SDS011;21083;50.898;4.902;2022-07-21T03:19:18;28.98;;;16.23;;
20653;SDS011;21083;50.898;4.902;2022-07-21T03:21:45;32.88;;;18.00;;
20653;SDS011;21083;50.898;4.902;2022-07-21T03:24:13;25.60;;;16.17;;
20653;SDS011;21083;50.898;4.902;2022-07-21T03:26:40;28.55;;;16.77;;
20653;SDS011;21083;50.898;4.902;2022-07-21T03:29:07;26.92;;;15.48;;
20653;SDS011;21083;50.898;4.902;2022-07-21T03:31:34;28.92;;;15.65;;
20653;SDS011;21083;50.898;4.902;2022-07-21T03:34:01;30.08;;;15.40;;
20653;SDS011;21083;50.898;4.902;2022-07-21T03:36:29;25.48;;;15.48;;
20653;SDS011;21083;50.898;4.902;2022-07-21T03:38:56;29.60;;;14.48;;
20653;SDS011;21083;50.898;4.902;2022-07-21T03:41:24;27.10;;;15.80;;
20653;SDS011;21083;50.898;4.902;2022-07-21T03:43:51;26.38;;;14.70;;
20653;SDS011;21083;50.898;4.902;2022-07-21T03:46:18;24.73;;;15.13;;
20653;SDS011;21083;50.898;4.902;2022-07-21T03:48:45;24.25;;;14.15;;
20653;SDS011;21083;50.898;4.902;2022-07-21T03:51:12;30.30;;;14.52;;
20653;SDS011;21083;50.898;4.902;2022-07-21T03:53:39;30.67;;;15.18;;
20653;SDS011;21083;50.898;4.902;2022-07-21T03:56:06;29.52;;;14.63;;
20653;SDS011;21083;50.898;4.902;2022-07-21T03:58:34;24.77;;;14.15;;
20653;SDS011;21083;50.898;4.902;2022-07-21T04:01:01;28.25;;;14.60;;
20653;SDS011;21083;50.898;4.902;2022-07-21T04:03:28;24.05;;;14.00;;
20653;SDS011;21083;50.898;4.902;2022-07-21T04:05:55;27.20;;;14.88;;
20653;SDS011;21083;50.898;4.902;2022-07-21T04:08:22;25.17;;;14.75;;
20653;SDS011;21083;50.898;4.902;2022-07-21T04:10:50;23.50;;;13.18;;
20653;SDS011;21083;50.898;4.902;2022-07-21T04:13:17;28.83;;;14.07;;
20653;SDS011;21083;50.898;4.902;2022-07-21T04:15:45;22.73;;;13.80;;
20653;SDS011;21083;50.898;4.902;2022-07-21T04:18:12;21.77;;;13.02;;
20653;SDS011;21083;50.898;4.902;2022-07-21T04:20:39;26.15;;;13.88;;
20653;SDS011;21083;50.898;4.902;2022-07-21T04:23:06;31.38;;;13.55;;
20653;SDS011;21083;50.898;4.902;2022-07-21T04:25:33;27.23;;;13.68;;
20653;SDS011;21083;50.898;4.902;2022-07-21T04:28:00;25.40;;;13.68;;
20653;SDS011;21083;50.898;4.902;2022-07-21T04:30:27;24.40;;;12.90;;
20653;SDS011;21083;50.898;4.902;2022-07-21T04:32:56;25.20;;;14.23;;
20653;SDS011;21083;50.898;4.902;2022-07-21T04:35:23;26.13;;;14.60;;
20653;SDS011;21083;50.898;4.902;2022-07-21T04:37:50;25.48;;;14.10;;
20653;SDS011;21083;50.898;4.902;2022-07-21T04:40:17;25.35;;;13.02;;
20653;SDS011;21083;50.898;4.902;2022-07-21T04:42:44;26.33;;;14.20;;
20653;SDS011;21083;50.898;4.902;2022-07-21T04:45:12;24.60;;;13.00;;
20653;SDS011;21083;50.898;4.902;2022-07-21T04:47:41;19.27;;;11.93;;
20653;SDS011;21083;50.898;4.902;2022-07-21T04:50:10;30.58;;;13.80;;
20653;SDS011;21083;50.898;4.902;2022-07-21T04:52:38;23.35;;;11.80;;
20653;SDS011;21083;50.898;4.902;2022-07-21T04:55:05;24.15;;;13.05;;
20653;SDS011;21083;50.898;4.902;2022-07-21T04:57:35;29.83;;;14.65;;
20653;SDS011;21083;50.898;4.902;2022-07-21T05:00:04;30.00;;;13.25;;
20653;SDS011;21083;50.898;4.902;2022-07-21T05:02:32;20.90;;;12.23;;
20653;SDS011;21083;50.898;4.902;2022-07-21T05:04:59;24.98;;;12.55;;
20653;SDS011;21083;50.898;4.902;2022-07-21T05:07:28;24.17;;;12.73;;
20653;SDS011;21083;50.898;4.902;2022-07-21T05:09:54;22.75;;;12.95;;
20653;SDS011;21083;50.898;4.902;2022-07-21T05:12:23;24.98;;;13.15;;
20653;SDS011;21083;50.898;4.902;2022-07-21T05:14:51;23.42;;;12.43;;
20653;SDS011;21083;50.898;4.902;2022-07-21T05:17:18;25.52;;;11.88;;
20653;SDS011;21083;50.898;4.902;2022-07-21T05:19:45;26.42;;;13.80;;
20653;SDS011;21083;50.898;4.902;2022-07-21T05:22:15;22.17;;;13.25;;
20653;SDS011;21083;50.898;4.902;2022-07-21T05:24:43;24.15;;;12.38;;
20653;SDS011;21083;50.898;4.902;2022-07-21T05:27:10;28.30;;;14.63;;
20653;SDS011;21083;50.898;4.902;2022-07-21T05:29:37;25.67;;;13.95;;
20653;SDS011;21083;50.898;4.902;2022-07-21T05:32:04;24.92;;;13.07;;
20653;SDS011;21083;50.898;4.902;2022-07-21T05:34:33;26.25;;;13.35;;
20653;SDS011;21083;50.898;4.902;2022-07-21T05:37:00;30.80;;;14.07;;
20653;SDS011;21083;50.898;4.902;2022-07-21T05:39:28;31.75;;;15.48;;
20653;SDS011;21083;50.898;4.902;2022-07-21T05:41:56;33.53;;;14.93;;
20653;SDS011;21083;50.898;4.902;2022-07-21T05:44:23;29.98;;;15.27;;
20653;SDS011;21083;50.898;4.902;2022-07-21T05:46:50;30.85;;;14.93;;
20653;SDS011;21083;50.898;4.902;2022-07-21T05:49:17;27.73;;;14.80;;
20653;SDS011;21083;50.898;4.902;2022-07-21T05:51:44;31.02;;;15.93;;
20653;SDS011;21083;50.898;4.902;2022-07-21T05:54:11;33.45;;;15.50;;
20653;SDS011;21083;50.898;4.902;2022-07-21T05:56:38;37.10;;;15.93;;
20653;SDS011;21083;50.898;4.902;2022-07-21T05:59:06;34.60;;;15.07;;
20653;SDS011;21083;50.898;4.902;2022-07-21T06:01:33;32.78;;;15.95;;
20653;SDS011;21083;50.898;4.902;2022-07-21T06:04:00;31.00;;;15.23;;
20653;SDS011;21083;50.898;4.902;2022-07-21T06:06:27;33.53;;;15.40;;
20653;SDS011;21083;50.898;4.902;2022-07-21T06:08:54;26.23;;;13.93;;
20653;SDS011;21083;50.898;4.902;2022-07-21T06:11:21;29.60;;;14.68;;
20653;SDS011;21083;50.898;4.902;2022-07-21T06:13:48;37.97;;;15.18;;
20653;SDS011;21083;50.898;4.902;2022-07-21T06:16:16;33.97;;;14.55;;
20653;SDS011;21083;50.898;4.902;2022-07-21T06:18:43;33.88;;;15.52;;
20653;SDS011;21083;50.898;4.902;2022-07-21T06:21:10;26.65;;;14.52;;
20653;SDS011;21083;50.898;4.902;2022-07-21T06:23:37;30.60;;;13.48;;
20653;SDS011;21083;50.898;4.902;2022-07-21T06:26:04;31.20;;;14.73;;
20653;SDS011;21083;50.898;4.902;2022-07-21T06:28:31;27.58;;;14.13;;
20653;SDS011;21083;50.898;4.902;2022-07-21T06:30:58;31.67;;;14.63;;
20653;SDS011;21083;50.898;4.902;2022-07-21T06:33:26;31.02;;;14.02;;
20653;SDS011;21083;50.898;4.902;2022-07-21T06:35:54;29.95;;;13.65;;
20653;SDS011;21083;50.898;4.902;2022-07-21T06:38:21;30.75;;;14.50;;
20653;SDS011;21083;50.898;4.902;2022-07-21T06:40:48;28.33;;;13.43;;
20653;SDS011;21083;50.898;4.902;2022-07-21T06:43:15;24.65;;;14.00;;
20653;SDS011;21083;50.898;4.902;2022-07-21T06:45:42;25.02;;;13.95;;
20653;SDS011;21083;50.898;4.902;2022-07-21T06:48:09;29.00;;;14.75;;
20653;SDS011;21083;50.898;4.902;2022-07-21T06:50:38;26.30;;;14.88;;
20653;SDS011;21083;50.898;4.902;2022-07-21T06:53:05;25.52;;;14.98;;
20653;SDS011;21083;50.898;4.902;2022-07-21T06:55:33;34.38;;;15.50;;
20653;SDS011;21083;50.898;4.902;2022-07-21T06:58:07;29.35;;;15.82;;
20653;SDS011;21083;50.898;4.902;2022-07-21T07:00:35;30.77;;;15.77;;
20653;SDS011;21083;50.898;4.902;2022-07-21T07:03:02;30.23;;;15.15;;
20653;SDS011;21083;50.898;4.902;2022-07-21T07:05:30;27.30;;;14.93;;
20653;SDS011;21083;50.898;4.902;2022-07-21T07:07:58;32.08;;;15.75;;
20653;SDS011;21083;50.898;4.902;2022-07-21T07:10:25;24.80;;;14.80;;
20653;SDS011;21083;50.898;4.902;2022-07-21T07:12:52;29.50;;;15.65;;
20653;SDS011;21083;50.898;4.902;2022-07-21T07:15:20;29.42;;;15.15;;
20653;SDS011;21083;50.898;4.902;2022-07-21T07:17:47;37.67;;;16.23;;
20653;SDS011;21083;50.898;4.902;2022-07-21T07:20:14;30.20;;;15.75;;
20653;SDS011;21083;50.898;4.902;2022-07-21T07:22:40;32.47;;;16.42;;
20653;SDS011;21083;50.898;4.902;2022-07-21T07:25:09;27.58;;;15.57;;
20653;SDS011;21083;50.898;4.902;2022-07-21T07:27:36;27.70;;;15.38;;
20653;SDS011;21083;50.898;4.902;2022-07-21T07:30:04;27.67;;;14.55;;
20653;SDS011;21083;50.898;4.902;2022-07-21T07:32:32;27.25;;;14.25;;
20653;SDS011;21083;50.898;4.902;2022-07-21T07:34:58;28.23;;;15.30;;
20653;SDS011;21083;50.898;4.902;2022-07-21T07:37:25;32.25;;;14.85;;
20653;SDS011;21083;50.898;4.902;2022-07-21T07:39:52;28.85;;;15.50;;
20653;SDS011;21083;50.898;4.902;2022-07-21T07:42:20;31.35;;;15.32;;
20653;SDS011;21083;50.898;4.902;2022-07-21T07:44:47;30.23;;;16.98;;
20653;SDS011;21083;50.898;4.902;2022-07-21T07:47:14;29.13;;;14.32;;
20653;SDS011;21083;50.898;4.902;2022-07-21T07:49:41;29.95;;;16.02;;
20653;SDS011;21083;50.898;4.902;2022-07-21T07:52:08;26.33;;;15.18;;
20653;SDS011;21083;50.898;4.902;2022-07-21T07:54:35;26.05;;;13.90;;
20653;SDS011;21083;50.898;4.902;2022-07-21T07:57:02;24.85;;;14.68;;
20653;SDS011;21083;50.898;4.902;2022-07-21T07:59:30;25.95;;;14.13;;
20653;SDS011;21083;50.898;4.902;2022-07-21T08:01:57;27.55;;;13.88;;
20653;SDS011;21083;50.898;4.902;2022-07-21T08:04:24;25.05;;;13.40;;
20653;SDS011;21083;50.898;4.902;2022-07-21T08:06:51;23.05;;;13.05;;
20653;SDS011;21083;50.898;4.902;2022-07-21T08:09:18;23.70;;;14.32;;
20653;SDS011;21083;50.898;4.902;2022-07-21T08:11:45;28.85;;;13.82;;
20653;SDS011;21083;50.898;4.902;2022-07-21T08:14:12;23.08;;;13.38;;
20653;SDS011;21083;50.898;4.902;2022-07-21T08:16:41;26.67;;;13.93;;
20653;SDS011;21083;50.898;4.902;2022-07-21T08:19:08;30.70;;;16.88;;
20653;SDS011;21083;50.898;4.902;2022-07-21T08:21:35;33.58;;;17.75;;
20653;SDS011;21083;50.898;4.902;2022-07-21T08:24:02;37.78;;;19.95;;
20653;SDS011;21083;50.898;4.902;2022-07-21T08:26:30;40.65;;;20.65;;
20653;SDS011;21083;50.898;4.902;2022-07-21T08:28:57;41.85;;;21.35;;
20653;SDS011;21083;50.898;4.902;2022-07-21T08:31:24;39.22;;;22.02;;
20653;SDS011;21083;50.898;4.902;2022-07-21T08:33:53;50.13;;;24.27;;
20653;SDS011;21083;50.898;4.902;2022-07-21T08:36:20;50.50;;;23.80;;
20653;SDS011;21083;50.898;4.902;2022-07-21T08:38:47;44.15;;;22.70;;
20653;SDS011;21083;50.898;4.902;2022-07-21T08:41:14;46.97;;;24.45;;
20653;SDS011;21083;50.898;4.902;2022-07-21T08:43:41;46.03;;;23.15;;
20653;SDS011;21083;50.898;4.902;2022-07-21T08:46:08;47.92;;;24.40;;
20653;SDS011;21083;50.898;4.902;2022-07-21T08:48:36;47.75;;;22.92;;
20653;SDS011;21083;50.898;4.902;2022-07-21T08:51:04;49.08;;;25.27;;
20653;SDS011;21083;50.898;4.902;2022-07-21T08:53:31;47.78;;;24.10;;
20653;SDS011;21083;50.898;4.902;2022-07-21T08:55:58;42.50;;;24.17;;
20653;SDS011;21083;50.898;4.902;2022-07-21T08:58:25;47.03;;;23.48;;
20653;SDS011;21083;50.898;4.902;2022-07-21T09:00:52;49.15;;;24.00;;
20653;SDS011;21083;50.898;4.902;2022-07-21T09:03:20;41.85;;;23.52;;
20653;SDS011;21083;50.898;4.902;2022-07-21T09:05:59;45.88;;;23.42;;
20653;SDS011;21083;50.898;4.902;2022-07-21T09:08:31;43.35;;;23.23;;
20653;SDS011;21083;50.898;4.902;2022-07-21T09:11:10;45.45;;;22.73;;
20653;SDS011;21083;50.898;4.902;2022-07-21T09:13:38;50.53;;;23.13;;
20653;SDS011;21083;50.898;4.902;2022-07-21T09:16:06;45.72;;;23.42;;
20653;SDS011;21083;50.898;4.902;2022-07-21T09:18:34;43.03;;;23.90;;
20653;SDS011;21083;50.898;4.902;2022-07-21T09:21:12;42.92;;;22.25;;
20653;SDS011;21083;50.898;4.902;2022-07-21T09:23:43;47.53;;;23.45;;
20653;SDS011;21083;50.898;4.902;2022-07-21T09:26:10;47.03;;;23.60;;
20653;SDS011;21083;50.898;4.902;2022-07-21T09:28:38;40.88;;;21.80;;
20653;SDS011;21083;50.898;4.902;2022-07-21T09:31:08;40.55;;;22.77;;
20653;SDS011;21083;50.898;4.902;2022-07-21T09:33:37;34.80;;;19.77;;
20653;SDS011;21083;50.898;4.902;2022-07-21T09:36:06;28.60;;;15.85;;
20653;SDS011;21083;50.898;4.902;2022-07-21T09:38:35;26.35;;;13.40;;
20653;SDS011;21083;50.898;4.902;2022-07-21T09:41:06;27.98;;;15.60;;
20653;SDS011;21083;50.898;4.902;2022-07-21T09:43:39;30.85;;;15.48;;
20653;SDS011;21083;50.898;4.902;2022-07-21T09:46:13;26.92;;;15.48;;
20653;SDS011;21083;50.898;4.902;2022-07-21T09:48:42;26.75;;;14.52;;
20653;SDS011;21083;50.898;4.902;2022-07-21T09:51:24;29.83;;;14.95;;
20653;SDS011;21083;50.898;4.902;2022-07-21T09:53:54;22.40;;;13.45;;
20653;SDS011;21083;50.898;4.902;2022-07-21T09:56:25;22.13;;;12.30;;
20653;SDS011;21083;50.898;4.902;2022-07-21T09:58:54;22.55;;;12.57;;
20653;SDS011;21083;50.898;4.902;2022-07-21T10:01:23;21.17;;;12.98;;
20653;SDS011;21083;50.898;4.902;2022-07-21T10:03:52;20.17;;;12.05;;
20653;SDS011;21083;50.898;4.902;2022-07-21T10:06:20;18.52;;;11.60;;
20653;SDS011;21083;50.898;4.902;2022-07-21T10:08:50;18.65;;;11.55;;
20653;SDS011;21083;50.898;4.902;2022-07-21T10:11:18;20.10;;;11.38;;
20653;SDS011;21083;50.898;4.902;2022-07-21T10:13:46;17.08;;;10.23;;
20653;SDS011;21083;50.898;4.902;2022-07-21T10:16:14;18.38;;;9.85;;
20653;SDS011;21083;50.898;4.902;2022-07-21T10:21:34;14.18;;;8.38;;
20653;SDS011;21083;50.898;4.902;2022-07-21T10:24:05;12.32;;;6.63;;
20653;SDS011;21083;50.898;4.902;2022-07-21T10:26:36;15.15;;;7.10;;
20653;SDS011;21083;50.898;4.902;2022-07-21T10:29:05;15.55;;;6.78;;
20653;SDS011;21083;50.898;4.902;2022-07-21T10:31:34;12.63;;;6.40;;
20653;SDS011;21083;50.898;4.902;2022-07-21T10:34:08;15.82;;;6.55;;
20653;SDS011;21083;50.898;4.902;2022-07-21T10:36:39;17.33;;;6.55;;
20653;SDS011;21083;50.898;4.902;2022-07-21T10:39:20;14.60;;;7.60;;
20653;SDS011;21083;50.898;4.902;2022-07-21T10:41:53;14.10;;;7.20;;
20653;SDS011;21083;50.898;4.902;2022-07-21T10:44:42;14.38;;;7.05;;
20653;SDS011;21083;50.898;4.902;2022-07-21T10:47:11;15.27;;;7.72;;
20653;SDS011;21083;50.898;4.902;2022-07-21T10:49:44;14.75;;;7.70;;
20653;SDS011;21083;50.898;4.902;2022-07-21T10:55:34;21.42;;;9.43;;
20653;SDS011;21083;50.898;4.902;2022-07-21T10:58:08;23.85;;;9.93;;
20653;SDS011;21083;50.898;4.902;2022-07-21T11:00:45;21.27;;;9.88;;
20653;SDS011;21083;50.898;4.902;2022-07-21T11:03:14;21.30;;;9.43;;
20653;SDS011;21083;50.898;4.902;2022-07-21T11:08:45;16.88;;;8.90;;
20653;SDS011;21083;50.898;4.902;2022-07-21T11:11:14;20.17;;;9.00;;
20653;SDS011;21083;50.898;4.902;2022-07-21T11:14:02;22.27;;;9.70;;
20653;SDS011;21083;50.898;4.902;2022-07-21T11:19:38;24.00;;;9.60;;
20653;SDS011;21083;50.898;4.902;2022-07-21T11:22:11;22.85;;;9.48;;
20653;SDS011;21083;50.898;4.902;2022-07-21T11:24:42;19.77;;;9.18;;
20653;SDS011;21083;50.898;4.902;2022-07-21T11:27:12;20.77;;;9.38;;
20653;SDS011;21083;50.898;4.902;2022-07-21T11:29:40;17.27;;;8.70;;
20653;SDS011;21083;50.898;4.902;2022-07-21T11:32:09;14.95;;;7.55;;
20653;SDS011;21083;50.898;4.902;2022-07-21T11:34:40;18.05;;;8.07;;
20653;SDS011;21083;50.898;4.902;2022-07-21T11:37:10;14.98;;;7.75;;
20653;SDS011;21083;50.898;4.902;2022-07-21T11:39:37;18.35;;;8.57;;
20653;SDS011;21083;50.898;4.902;2022-07-21T11:42:06;17.70;;;9.02;;
20653;SDS011;21083;50.898;4.902;2022-07-21T11:44:34;20.27;;;8.30;;
20653;SDS011;21083;50.898;4.902;2022-07-21T11:47:02;20.05;;;9.35;;
20653;SDS011;21083;50.898;4.902;2022-07-21T11:49:31;19.83;;;8.80;;
20653;SDS011;21083;50.898;4.902;2022-07-21T11:52:00;19.40;;;9.90;;
20653;SDS011;21083;50.898;4.902;2022-07-21T11:54:30;20.90;;;8.88;;
20653;SDS011;21083;50.898;4.902;2022-07-21T11:56:59;18.58;;;8.95;;
20653;SDS011;21083;50.898;4.902;2022-07-21T11:59:28;19.35;;;9.48;;
20653;SDS011;21083;50.898;4.902;2022-07-21T12:01:57;17.73;;;8.48;;
20653;SDS011;21083;50.898;4.902;2022-07-21T12:04:29;14.48;;;8.23;;
20653;SDS011;21083;50.898;4.902;2022-07-21T12:06:57;22.38;;;9.05;;
20653;SDS011;21083;50.898;4.902;2022-07-21T12:09:26;18.90;;;8.55;;
20653;SDS011;21083;50.898;4.902;2022-07-21T12:11:54;19.35;;;8.38;;
20653;SDS011;21083;50.898;4.902;2022-07-21T12:17:13;17.75;;;6.65;;
20653;SDS011;21083;50.898;4.902;2022-07-21T12:19:41;15.60;;;5.75;;
20653;SDS011;21083;50.898;4.902;2022-07-21T12:22:10;12.57;;;5.45;;
20653;SDS011;21083;50.898;4.902;2022-07-21T12:24:47;11.75;;;5.28;;
20653;SDS011;21083;50.898;4.902;2022-07-21T12:27:18;11.98;;;4.82;;
20653;SDS011;21083;50.898;4.902;2022-07-21T12:29:46;11.02;;;4.93;;
20653;SDS011;21083;50.898;4.902;2022-07-21T12:32:14;13.70;;;5.78;;
20653;SDS011;21083;50.898;4.902;2022-07-21T12:35:01;20.45;;;6.68;;
20653;SDS011;21083;50.898;4.902;2022-07-21T12:40:21;13.35;;;6.00;;
20653;SDS011;21083;50.898;4.902;2022-07-21T12:42:48;17.25;;;6.43;;
20653;SDS011;21083;50.898;4.902;2022-07-21T12:45:16;15.60;;;5.40;;
20653;SDS011;21083;50.898;4.902;2022-07-21T12:50:32;14.68;;;5.40;;
20653;SDS011;21083;50.898;4.902;2022-07-21T12:53:01;16.00;;;5.25;;
20653;SDS011;21083;50.898;4.902;2022-07-21T12:55:28;13.77;;;5.93;;
20653;SDS011;21083;50.898;4.902;2022-07-21T12:57:54;15.07;;;6.47;;
20653;SDS011;21083;50.898;4.902;2022-07-21T13:00:21;12.93;;;5.63;;
20653;SDS011;21083;50.898;4.902;2022-07-21T13:02:50;17.05;;;6.47;;
20653;SDS011;21083;50.898;4.902;2022-07-21T13:05:19;18.08;;;6.32;;
20653;SDS011;21083;50.898;4.902;2022-07-21T13:07:46;16.83;;;6.72;;
20653;SDS011;21083;50.898;4.902;2022-07-21T13:10:14;15.95;;;8.60;;
20653;SDS011;21083;50.898;4.902;2022-07-21T13:12:41;17.58;;;9.52;;
20653;SDS011;21083;50.898;4.902;2022-07-21T13:15:09;16.90;;;8.80;;
20653;SDS011;21083;50.898;4.902;2022-07-21T13:17:36;15.50;;;8.35;;
20653;SDS011;21083;50.898;4.902;2022-07-21T13:20:04;19.42;;;7.95;;
20653;SDS011;21083;50.898;4.902;2022-07-21T13:22:31;18.35;;;7.30;;
20653;SDS011;21083;50.898;4.902;2022-07-21T13:24:58;23.80;;;8.38;;
20653;SDS011;21083;50.898;4.902;2022-07-21T13:27:26;13.60;;;6.90;;
20653;SDS011;21083;50.898;4.902;2022-07-21T13:29:53;18.58;;;7.22;;
20653;SDS011;21083;50.898;4.902;2022-07-21T13:32:20;20.17;;;7.40;;
20653;SDS011;21083;50.898;4.902;2022-07-21T13:34:47;17.75;;;8.15;;
20653;SDS011;21083;50.898;4.902;2022-07-21T13:37:14;21.25;;;7.63;;
20653;SDS011;21083;50.898;4.902;2022-07-21T13:39:41;21.83;;;7.50;;
20653;SDS011;21083;50.898;4.902;2022-07-21T13:42:08;16.63;;;7.80;;
20653;SDS011;21083;50.898;4.902;2022-07-21T13:44:36;16.08;;;7.38;;
20653;SDS011;21083;50.898;4.902;2022-07-21T13:47:03;17.13;;;7.47;;
20653;SDS011;21083;50.898;4.902;2022-07-21T13:49:30;17.23;;;8.68;;
20653;SDS011;21083;50.898;4.902;2022-07-21T13:51:57;16.58;;;8.73;;
20653;SDS011;21083;50.898;4.902;2022-07-21T13:54:24;19.15;;;8.07;;
20653;SDS011;21083;50.898;4.902;2022-07-21T13:56:51;20.60;;;8.02;;
20653;SDS011;21083;50.898;4.902;2022-07-21T13:59:18;16.20;;;7.15;;
20653;SDS011;21083;50.898;4.902;2022-07-21T14:01:46;20.90;;;8.23;;
20653;SDS011;21083;50.898;4.902;2022-07-21T14:04:13;18.67;;;7.45;;
20653;SDS011;21083;50.898;4.902;2022-07-21T14:06:40;18.25;;;8.25;;
20653;SDS011;21083;50.898;4.902;2022-07-21T14:09:11;17.67;;;7.50;;
20653;SDS011;21083;50.898;4.902;2022-07-21T14:11:38;19.65;;;7.28;;
20653;SDS011;21083;50.898;4.902;2022-07-21T14:14:05;19.77;;;8.60;;
20653;SDS011;21083;50.898;4.902;2022-07-21T14:16:32;19.25;;;8.70;;
20653;SDS011;21083;50.898;4.902;2022-07-21T14:19:00;17.60;;;8.43;;
20653;SDS011;21083;50.898;4.902;2022-07-21T14:21:27;20.88;;;8.90;;
20653;SDS011;21083;50.898;4.902;2022-07-21T14:23:54;20.10;;;8.82;;
20653;SDS011;21083;50.898;4.902;2022-07-21T14:26:35;20.30;;;9.40;;
20653;SDS011;21083;50.898;4.902;2022-07-21T14:29:03;23.98;;;10.63;;
20653;SDS011;21083;50.898;4.902;2022-07-21T14:31:31;21.90;;;10.23;;
20653;SDS011;21083;50.898;4.902;2022-07-21T14:33:58;21.02;;;11.30;;
20653;SDS011;21083;50.898;4.902;2022-07-21T14:36:26;23.83;;;10.68;;
20653;SDS011;21083;50.898;4.902;2022-07-21T14:38:53;22.83;;;11.15;;
20653;SDS011;21083;50.898;4.902;2022-07-21T14:41:20;24.27;;;9.00;;
20653;SDS011;21083;50.898;4.902;2022-07-21T14:43:47;15.23;;;7.97;;
20653;SDS011;21083;50.898;4.902;2022-07-21T14:46:15;24.88;;;8.60;;
20653;SDS011;21083;50.898;4.902;2022-07-21T14:48:42;25.13;;;9.43;;
20653;SDS011;21083;50.898;4.902;2022-07-21T14:51:08;22.83;;;8.55;;
20653;SDS011;21083;50.898;4.902;2022-07-21T14:53:37;21.23;;;8.73;;